createdAt,value
2024-02-13T00:01:11.407Z,0.91
2024-02-13T00:03:42.065Z,0.97
2024-02-13T00:06:12.497Z,1.05
2024-02-13T00:08:45.757Z,1.15
2024-02-13T00:11:17.213Z,1.26
2024-02-13T00:13:48.162Z,1.36
2024-02-13T00:16:19.674Z,1.45
2024-02-13T00:18:53.256Z,1.52
2024-02-13T00:21:23.897Z,1.58
2024-02-13T00:23:54.172Z,1.63
2024-02-13T00:26:24.797Z,1.67
2024-02-13T00:28:55.531Z,1.71
2024-02-13T00:31:25.918Z,1.74
2024-02-13T00:33:56.432Z,1.73
2024-02-13T00:36:27.095Z,1.69
2024-02-13T00:38:58.234Z,1.62
2024-02-13T00:41:28.644Z,1.57
2024-02-13T00:43:59.579Z,1.52
2024-02-13T00:46:31.007Z,1.48
2024-02-13T00:49:01.438Z,1.44
2024-02-13T00:51:32.137Z,1.37
2024-02-13T00:54:02.556Z,1.29
2024-02-13T00:56:34.873Z,1.21
2024-02-13T00:59:08.685Z,1.13
2024-02-13T01:01:39.222Z,1.05
2024-02-13T01:04:09.638Z,0.97
2024-02-13T01:06:40.093Z,0.97
2024-02-13T01:09:10.573Z,0.94
2024-02-13T01:11:41.111Z,0.89
2024-02-13T01:14:11.710Z,0.81
2024-02-13T01:16:42.218Z,0.72
2024-02-13T01:19:13.473Z,0.67
2024-02-13T01:21:44.722Z,0.59
2024-02-13T01:24:15.116Z,0.52
2024-02-13T01:26:46.306Z,0.53
2024-02-13T01:29:16.920Z,0.53
2024-02-13T01:31:47.687Z,0.52
2024-02-13T01:34:18.667Z,0.49
2024-02-13T01:36:49.496Z,0.46
2024-02-13T01:39:20.228Z,0.43
2024-02-13T01:41:50.618Z,0.42
2024-02-13T01:44:21.128Z,0.43
2024-02-13T01:46:53.662Z,0.43
2024-02-13T01:49:24.790Z,0.40
2024-02-13T01:51:56.068Z,0.37
2024-02-13T01:54:28.280Z,0.30
2024-02-13T01:56:59.382Z,0.28
2024-02-13T01:59:30.187Z,0.26
2024-02-13T02:02:00.728Z,0.23
2024-02-13T02:04:32.196Z,0.23
2024-02-13T02:07:05.005Z,0.25
2024-02-13T02:09:35.646Z,0.23
2024-02-13T02:12:06.923Z,0.19
2024-02-13T02:14:39.730Z,0.16
2024-02-13T02:17:13.924Z,0.09
2024-02-13T02:19:48.377Z,0.14
2024-02-13T02:22:19.366Z,0.15
2024-02-13T02:24:49.740Z,0.16
2024-02-13T02:27:20.799Z,0.16
2024-02-13T02:29:51.635Z,0.14
2024-02-13T02:32:22.903Z,0.12
2024-02-13T02:34:53.279Z,0.09
2024-02-13T02:37:23.860Z,0.07
2024-02-13T02:39:54.272Z,0.07
2024-02-13T02:42:25.239Z,0.06
2024-02-13T02:44:55.616Z,0.06
2024-02-13T02:47:26.298Z,0.04
2024-02-13T02:49:56.782Z,0.02
2024-02-13T02:52:27.044Z,-0.00
2024-02-13T02:54:57.602Z,-0.01
2024-02-13T02:57:28.747Z,-0.00
2024-02-13T02:59:59.022Z,0.01
2024-02-13T03:02:30.722Z,0.01
2024-02-13T03:05:01.185Z,-0.01
2024-02-13T03:07:31.415Z,-0.02
2024-02-13T03:10:01.712Z,-0.04
2024-02-13T03:12:33.115Z,-0.01
2024-02-13T03:15:03.502Z,0.05
2024-02-13T03:17:34.068Z,0.11
2024-02-13T03:20:04.685Z,0.15
2024-02-13T03:22:37.938Z,0.16
2024-02-13T03:25:10.309Z,0.15
2024-02-13T03:27:42.387Z,0.15
2024-02-13T03:30:14.564Z,0.16
2024-02-13T03:32:46.075Z,0.19
2024-02-13T03:35:17.182Z,0.18
2024-02-13T03:37:47.958Z,0.15
2024-02-13T03:40:18.676Z,0.10
2024-02-13T03:42:48.985Z,0.07
2024-02-13T03:45:19.424Z,0.05
2024-02-13T03:47:49.777Z,0.05
2024-02-13T03:50:20.276Z,0.06
2024-02-13T03:52:50.647Z,0.05
2024-02-13T03:55:21.485Z,-0.01
2024-02-13T03:57:51.780Z,0.00
2024-02-13T04:00:22.765Z,-0.02
2024-02-13T04:02:53.418Z,-0.02
2024-02-13T04:05:25.835Z,0.01
2024-02-13T04:07:56.540Z,0.04
2024-02-13T04:10:26.946Z,0.04
2024-02-13T04:12:57.158Z,0.03
2024-02-13T04:15:27.480Z,0.04
2024-02-13T04:17:58.290Z,0.05
2024-02-13T04:20:28.818Z,0.05
2024-02-13T04:22:59.078Z,0.06
2024-02-13T04:25:29.375Z,0.08
2024-02-13T04:27:59.856Z,0.09
2024-02-13T04:30:30.564Z,0.08
2024-02-13T04:33:01.481Z,0.09
2024-02-13T04:35:32.199Z,0.07
2024-02-13T04:38:04.746Z,0.08
2024-02-13T04:40:35.263Z,0.10
2024-02-13T04:43:08.085Z,0.12
2024-02-13T04:45:39.255Z,0.13
2024-02-13T04:48:14.379Z,0.14
2024-02-13T04:50:45.098Z,0.17
2024-02-13T04:53:16.719Z,0.19
2024-02-13T04:55:55.600Z,0.21
2024-02-13T04:58:29.607Z,0.27
2024-02-13T05:01:06.077Z,0.36
2024-02-13T05:04:04.955Z,0.43
2024-02-13T05:06:49.912Z,0.52
2024-02-13T05:09:21.234Z,0.53
2024-02-13T05:11:51.806Z,0.52
2024-02-13T05:14:22.806Z,0.49
2024-02-13T05:16:53.633Z,0.45
2024-02-13T05:19:24.350Z,0.42
2024-02-13T05:21:55.561Z,0.38
2024-02-13T05:24:27.722Z,0.33
2024-02-13T05:26:57.999Z,0.27
2024-02-13T05:29:32.067Z,0.13
2024-02-13T05:32:03.958Z,0.09
2024-02-13T05:34:34.606Z,-0.03
2024-02-13T05:37:06.362Z,-0.07
2024-02-13T05:39:37.359Z,-0.10
2024-02-13T05:42:08.453Z,-0.14
2024-02-13T05:44:38.765Z,-0.18
2024-02-13T05:47:09.556Z,-0.21
2024-02-13T05:49:40.260Z,-0.23
2024-02-13T05:52:10.959Z,-0.21
2024-02-13T05:54:43.784Z,-0.18
2024-02-13T05:57:14.343Z,-0.13
2024-02-13T05:59:44.726Z,-0.06
2024-02-13T06:02:15.408Z,-0.03
2024-02-13T06:04:46.049Z,-0.05
2024-02-13T06:07:16.615Z,-0.09
2024-02-13T06:09:47.504Z,-0.15
2024-02-13T06:12:18.018Z,-0.17
2024-02-13T06:14:48.640Z,-0.18
2024-02-13T06:17:19.405Z,-0.19
2024-02-13T06:19:49.704Z,-0.19
2024-02-13T06:22:20.165Z,-0.22
2024-02-13T06:24:50.521Z,-0.24
2024-02-13T06:27:22.604Z,-0.24
2024-02-13T06:29:53.015Z,-0.23
2024-02-13T06:32:23.972Z,-0.22
2024-02-13T06:34:54.867Z,-0.22
2024-02-13T06:37:25.655Z,-0.26
2024-02-13T06:39:55.969Z,-0.31
2024-02-13T06:42:26.385Z,-0.36
2024-02-13T06:44:58.161Z,-0.39
2024-02-13T06:47:29.198Z,-0.40
2024-02-13T06:50:01.756Z,-0.40
2024-02-13T06:52:32.590Z,-0.42
2024-02-13T06:55:03.397Z,-0.44
2024-02-13T06:57:36.281Z,-0.44
2024-02-13T07:00:08.757Z,-0.45
2024-02-13T07:02:39.435Z,-0.44
2024-02-13T07:05:12.399Z,-0.38
2024-02-13T07:07:47.660Z,-0.31
2024-02-13T07:10:19.683Z,-0.27
2024-02-13T07:12:50.258Z,-0.27
2024-02-13T07:15:21.780Z,-0.11
2024-02-13T07:17:59.595Z,0.05
2024-02-13T07:20:31.737Z,0.47
2024-02-13T07:23:02.738Z,0.90
2024-02-13T07:25:33.040Z,1.32
2024-02-13T07:28:03.821Z,1.66
2024-02-13T07:30:34.185Z,1.95
2024-02-13T07:33:05.352Z,2.33
2024-02-13T07:35:37.092Z,2.77
2024-02-13T07:38:07.538Z,3.11
2024-02-13T07:40:37.787Z,3.49
2024-02-13T07:43:08.193Z,3.89
2024-02-13T07:45:38.608Z,4.30
2024-02-13T07:48:12.314Z,4.70
2024-02-13T07:50:42.750Z,5.12
2024-02-13T07:53:13.157Z,5.51
2024-02-13T07:55:43.907Z,5.78
2024-02-13T07:58:14.294Z,5.92
2024-02-13T08:00:45.223Z,5.94
2024-02-13T08:03:16.350Z,6.19
2024-02-13T08:05:47.017Z,6.31
2024-02-13T08:08:17.565Z,6.27
2024-02-13T08:10:48.082Z,6.24
2024-02-13T08:13:18.458Z,6.19
2024-02-13T08:15:49.371Z,6.10
2024-02-13T08:18:20.427Z,5.99
2024-02-13T08:20:51.383Z,6.03
2024-02-13T08:23:21.902Z,6.06
2024-02-13T08:25:52.605Z,6.03
2024-02-13T08:28:23.002Z,5.96
2024-02-13T08:30:54.434Z,5.84
2024-02-13T08:33:25.088Z,5.78
2024-02-13T08:35:57.561Z,6.03
2024-02-13T08:38:28.027Z,6.29
2024-02-13T08:40:58.520Z,6.63
2024-02-13T08:43:29.077Z,7.02
2024-02-13T08:45:59.977Z,7.42
2024-02-13T08:48:30.828Z,7.79
2024-02-13T08:51:01.554Z,8.22
2024-02-13T08:53:32.013Z,8.51
2024-02-13T08:56:02.368Z,8.85
2024-02-13T08:58:32.749Z,9.09
2024-02-13T09:01:03.160Z,9.33
2024-02-13T09:03:33.529Z,9.46
2024-02-13T09:06:05.845Z,9.67
2024-02-13T09:08:41.340Z,9.94
2024-02-13T09:11:14.566Z,10.31
2024-02-13T09:13:46.317Z,10.51
2024-02-13T09:16:17.193Z,10.26
2024-02-13T09:18:48.604Z,9.90
2024-02-13T09:21:19.143Z,9.53
2024-02-13T09:23:50.528Z,8.96
2024-02-13T09:26:21.193Z,8.53
2024-02-13T09:28:52.084Z,8.17
2024-02-13T09:31:22.658Z,7.85
2024-02-13T09:33:53.363Z,7.55
2024-02-13T09:36:23.748Z,7.19
2024-02-13T09:38:54.419Z,6.90
2024-02-13T09:41:24.968Z,6.66
2024-02-13T09:43:56.888Z,6.52
2024-02-13T09:46:28.312Z,6.34
2024-02-13T09:48:59.161Z,6.24
2024-02-13T09:51:34.391Z,6.11
2024-02-13T09:54:05.856Z,5.99
2024-02-13T09:56:37.088Z,5.93
2024-02-13T09:59:08.310Z,6.03
2024-02-13T10:01:39.199Z,5.99
2024-02-13T10:04:09.639Z,5.95
2024-02-13T10:06:40.565Z,5.84
2024-02-13T10:09:12.987Z,5.73
2024-02-13T10:11:44.102Z,5.66
2024-02-13T10:14:22.812Z,5.63
2024-02-13T10:16:53.332Z,5.91
2024-02-13T10:19:23.910Z,6.19
2024-02-13T10:22:05.358Z,6.93
2024-02-13T10:24:35.759Z,7.45
2024-02-13T10:27:10.641Z,7.61
2024-02-13T10:29:46.875Z,7.66
2024-02-13T10:32:20.003Z,8.03
2024-02-13T10:34:50.698Z,8.31
2024-02-13T10:37:22.372Z,9.09
2024-02-13T10:39:54.732Z,9.85
2024-02-13T10:42:27.977Z,10.87
2024-02-13T10:45:01.768Z,11.68
2024-02-13T10:47:34.446Z,12.22
2024-02-13T10:50:05.021Z,12.75
2024-02-13T10:52:36.641Z,13.02
2024-02-13T10:55:11.667Z,13.22
2024-02-13T10:57:46.175Z,13.49
2024-02-13T11:00:20.513Z,13.66
2024-02-13T11:02:53.905Z,13.52
2024-02-13T11:05:26.671Z,13.39
2024-02-13T11:07:57.898Z,13.64
2024-02-13T11:10:36.115Z,13.66
2024-02-13T11:13:10.460Z,13.38
2024-02-13T11:15:42.088Z,13.63
2024-02-13T11:18:14.597Z,13.68
2024-02-13T11:20:45.428Z,13.64
2024-02-13T11:23:17.562Z,12.99
2024-02-13T11:26:00.436Z,12.11
2024-02-13T11:28:36.998Z,11.83
2024-02-13T11:37:00.978Z,10.23
2024-02-13T11:39:32.142Z,9.88
2024-02-13T11:42:03.122Z,9.96
2024-02-13T11:44:37.514Z,10.09
2024-02-13T11:47:08.760Z,9.62
2024-02-13T11:49:39.186Z,10.07
2024-02-13T11:52:09.758Z,10.59
2024-02-13T11:54:41.182Z,10.59
2024-02-13T11:57:13.432Z,11.66
2024-02-13T11:59:44.500Z,12.92
2024-02-13T12:02:16.613Z,13.76
2024-02-13T12:04:47.098Z,14.61
2024-02-13T12:07:18.091Z,15.05
2024-02-13T12:09:51.667Z,14.93
2024-02-13T12:12:22.368Z,15.18
2024-02-13T12:14:53.612Z,15.52
2024-02-13T12:17:24.476Z,15.76
2024-02-13T12:20:40.909Z,16.02
2024-02-13T12:23:31.102Z,15.44
2024-02-13T12:26:57.255Z,15.09
2024-02-13T12:33:55.744Z,16.38
2024-02-13T12:36:51.645Z,16.54
2024-02-13T12:42:58.229Z,15.21
2024-02-13T12:49:16.057Z,13.57
2024-02-13T12:52:31.505Z,14.66
2024-02-13T12:55:24.039Z,15.83
2024-02-13T12:58:16.533Z,15.81
2024-02-13T13:05:31.626Z,16.87
2024-02-13T13:14:10.831Z,17.48
2024-02-13T13:15:07.063Z,15.71
2024-02-13T13:18:46.665Z,14.27
2024-02-13T13:21:41.626Z,13.32
2024-02-13T13:28:56.648Z,11.76
2024-02-13T13:32:49.492Z,11.08
2024-02-13T13:39:13.505Z,10.59
2024-02-13T13:43:28.037Z,10.47
2024-02-13T13:45:42.546Z,10.28
2024-02-13T13:48:45.617Z,10.11
2024-02-13T13:51:50.624Z,9.87
2024-02-13T13:54:43.863Z,9.63
2024-02-13T13:57:59.713Z,9.40
2024-02-13T14:05:02.693Z,8.93
2024-02-13T14:25:20.251Z,8.28
2024-02-13T14:28:37.296Z,8.12
2024-02-13T14:31:54.653Z,7.97
2024-02-13T14:34:42.961Z,7.86
2024-02-13T14:38:28.253Z,7.79
2024-02-13T14:41:48.825Z,7.74
2024-02-13T14:44:42.308Z,7.71
2024-02-13T14:47:53.866Z,7.69
2024-02-13T14:51:06.073Z,7.62
2024-02-13T14:54:40.013Z,7.55
2024-02-13T14:58:00.410Z,7.45
2024-02-13T15:00:52.440Z,7.39
2024-02-13T15:06:48.188Z,7.31
2024-02-13T15:09:33.219Z,7.28
2024-02-13T15:12:16.575Z,7.28
2024-02-13T15:15:37.680Z,7.27
2024-02-13T15:19:08.972Z,7.26
2024-02-13T15:25:25.002Z,7.20
2024-02-13T15:29:07.477Z,7.12
2024-02-13T15:32:37.824Z,7.09
2024-02-13T15:36:07.712Z,6.98
2024-02-13T15:42:29.093Z,6.88
2024-02-13T15:45:52.901Z,6.83
2024-02-13T15:48:53.800Z,6.76
2024-02-13T15:51:53.861Z,6.71
2024-02-13T15:54:53.790Z,6.64
2024-02-13T15:58:29.154Z,6.62
2024-02-13T16:01:30.331Z,6.60
2024-02-13T16:07:24.129Z,6.56
2024-02-13T16:13:57.194Z,6.55
2024-02-13T16:22:47.034Z,6.53
2024-02-13T16:38:14.280Z,6.36
2024-02-13T16:48:09.540Z,6.13
2024-02-13T16:51:03.933Z,6.05
2024-02-13T17:10:34.301Z,5.26
2024-02-13T17:13:28.637Z,5.16
2024-02-13T17:26:38.051Z,4.82
2024-02-13T17:29:27.314Z,4.73
2024-02-13T17:42:49.297Z,4.63
2024-02-13T17:46:20.489Z,4.66
2024-02-13T17:55:25.331Z,4.68
2024-02-13T17:58:12.891Z,4.68
2024-02-13T18:07:54.097Z,4.71
2024-02-13T18:11:00.165Z,4.74
2024-02-13T18:14:00.867Z,4.74
2024-02-13T18:33:09.556Z,4.51
2024-02-13T18:35:58.328Z,4.55
2024-02-13T18:38:48.702Z,4.58
2024-02-13T18:41:59.692Z,4.58
2024-02-13T18:49:07.329Z,4.54
2024-02-13T18:52:02.199Z,4.53
2024-02-13T18:54:55.290Z,4.51
2024-02-13T18:57:29.852Z,4.51
2024-02-13T19:00:17.974Z,4.52
2024-02-13T19:03:00.987Z,4.51
2024-02-13T19:08:50.889Z,4.61
2024-02-13T19:11:35.607Z,4.68
2024-02-13T19:14:06.244Z,4.71
2024-02-13T19:25:47.356Z,4.73
2024-02-13T19:28:20.323Z,4.69
2024-02-13T19:31:27.861Z,4.67
2024-02-13T19:34:02.301Z,4.71
2024-02-13T19:36:51.369Z,4.74
2024-02-13T19:39:35.627Z,4.77
2024-02-13T19:42:09.835Z,4.78
2024-02-13T19:44:43.895Z,4.78
2024-02-13T19:47:19.682Z,4.76
2024-02-13T19:49:56.781Z,4.75
2024-02-13T19:52:35.417Z,4.71
2024-02-13T19:55:16.002Z,4.70
2024-02-13T19:57:51.053Z,4.63
2024-02-13T20:00:51.907Z,4.63
2024-02-13T20:07:18.261Z,4.69
2024-02-13T20:09:57.079Z,4.69
2024-02-13T20:12:35.478Z,4.71
2024-02-13T20:15:46.266Z,4.71
2024-02-13T20:19:23.247Z,4.69
2024-02-13T20:21:44.412Z,4.66
2024-02-13T20:24:22.164Z,4.63
2024-02-13T20:27:32.921Z,4.59
2024-02-13T20:30:16.367Z,4.58
2024-02-13T20:33:19.676Z,4.62
2024-02-13T20:36:40.777Z,4.63
2024-02-13T20:39:26.434Z,4.63
2024-02-13T20:42:16.485Z,4.63
2024-02-13T20:48:40.791Z,4.59
2024-02-13T20:51:23.472Z,4.57
2024-02-13T20:58:17.820Z,4.64
2024-02-13T21:01:35.828Z,4.63
2024-02-13T21:18:20.767Z,4.48
2024-02-13T21:21:33.721Z,4.43
2024-02-13T21:42:25.284Z,4.24
2024-02-13T21:52:04.960Z,4.04
2024-02-13T21:55:03.555Z,3.94
2024-02-13T22:01:07.197Z,3.70
2024-02-13T22:04:32.685Z,3.59
2024-02-13T22:12:10.483Z,3.34
2024-02-13T22:15:19.347Z,3.29
2024-02-13T22:28:38.276Z,3.02
2024-02-13T22:31:22.693Z,2.99
2024-02-13T22:40:10.498Z,2.97
2024-02-13T22:44:30.046Z,3.15
2024-02-13T23:13:51.670Z,3.65
2024-02-13T23:20:15.746Z,3.76
2024-02-13T23:30:28.394Z,3.99
2024-02-13T23:33:34.753Z,4.04
2024-02-13T23:56:24.578Z,4.34
2024-02-13T23:59:27.373Z,4.37
